Time;durP1;ratioP1;P1;durP2;ratioP2;P2;SDS_P1;SDS_P2;PMS_P1;PMS_P2;Temp;Humidity;BMP_temperature;BMP_pressure;BME280_temperature;BME280_humidity;BME280_pressure;Samples;Min_cycle;Max_cycle;Signal;HPM_P1;HPM_P2
2022/12/18 00:01:36;;;;;;;;;;;;;;;15.74;23.92;99568.91;5072867;28;19928;-79
2022/12/18 00:04:07;;;;;;;;;;;;;;;15.71;24.19;99559.31;5071901;28;19928;-79
2022/12/18 00:06:34;;;;;;;;;;;;;;;15.53;24.02;99563.44;5073053;28;19912;-79
2022/12/18 00:09:01;;;;;;;;;;;;;;;15.76;24.20;99566.59;5075781;28;19912;-79
2022/12/18 00:11:28;;;;;;;;;;;;;;;15.51;24.66;99567.69;5068603;28;20011;-79
2022/12/18 00:13:55;;;;;;;;;;;;;;;16.62;23.73;99574.66;5074734;28;20031;-79
2022/12/18 00:16:22;;;;;;;;;;;;;;;17.53;23.38;99571.09;5073349;28;19916;-79
2022/12/18 00:18:52;;;;;;;;;;;;;;;16.59;23.17;99578.94;5081910;28;19912;-79
2022/12/18 00:21:18;;;;;;;;;;;;;;;16.31;23.09;99583.53;5070781;28;20327;-79
2022/12/18 00:23:45;;;;;;;;;;;;;;;16.53;22.60;99587.84;5070496;28;19917;-79
2022/12/18 00:26:16;;;;;;;;;;;;;;;14.94;24.38;99593.19;5071855;28;19942;-79
2022/12/18 00:28:42;;;;;;;;;;;;;;;15.39;24.79;99590.56;5078577;28;19942;-79
2022/12/18 00:31:10;;;;;;;;;;;;;;;16.68;22.71;99589.94;5069681;28;19936;-79
2022/12/18 00:33:36;;;;;;;;;;;;;;;15.89;23.09;99588.44;5072784;28;19923;-79
2022/12/18 00:36:03;;;;;;;;;;;;;;;16.38;23.89;99592.06;5070448;28;19917;-79
2022/12/18 00:38:29;;;;;;;;;;;;;;;17.02;22.56;99594.16;5074506;28;20398;-79
2022/12/18 00:40:55;;;;;;;;;;;;;;;16.47;22.68;99595.56;5070689;28;20425;-79
2022/12/18 00:43:21;;;;;;;;;;;;;;;16.12;22.78;99599.13;5067505;28;19920;-79
2022/12/18 00:45:47;;;;;;;;;;;;;;;16.23;23.03;99598.31;5070027;28;19973;-79
2022/12/18 00:48:13;;;;;;;;;;;;;;;15.90;23.84;99603.91;5068544;28;20308;-80
2022/12/18 00:50:39;;;;;;;;;;;;;;;16.00;23.32;99607.41;5069140;28;19916;-79
2022/12/18 00:53:05;;;;;;;;;;;;;;;15.97;23.76;99616.38;5063533;28;19951;-80
2022/12/18 00:55:31;;;;;;;;;;;;;;;16.28;23.69;99625.81;5074021;28;20003;-80
2022/12/18 00:57:57;;;;;;;;;;;;;;;17.11;23.47;99623.38;5072150;28;19967;-80
2022/12/18 01:00:23;;;;;;;;;;;;;;;17.53;22.80;99620.28;5070367;28;20018;-80
2022/12/18 01:02:49;;;;;;;;;;;;;;;17.69;22.35;99621.16;5071406;28;19952;-81
2022/12/18 01:05:15;;;;;;;;;;;;;;;18.44;21.77;99627.53;5072120;28;19924;-80
2022/12/18 01:07:41;;;;;;;;;;;;;;;18.56;21.12;99622.72;5073181;28;19916;-80
2022/12/18 01:10:09;;;;;;;;;;;;;;;18.70;20.85;99627.00;5072195;28;19927;-80
2022/12/18 01:12:35;;;;;;;;;;;;;;;18.78;21.64;99632.41;5068128;28;19916;-80
2022/12/18 01:15:02;;;;;;;;;;;;;;;18.07;22.22;99626.97;5065942;28;19916;-80
2022/12/18 01:17:28;;;;;;;;;;;;;;;18.57;21.46;99632.69;5070809;28;20371;-81
2022/12/18 01:19:54;;;;;;;;;;;;;;;18.46;21.63;99642.72;5074169;28;19912;-80
2022/12/18 01:22:20;;;;;;;;;;;;;;;18.10;21.43;99644.91;5064275;28;19927;-80
2022/12/18 01:24:46;;;;;;;;;;;;;;;17.80;21.85;99644.50;5066778;28;20058;-80
2022/12/18 01:27:12;;;;;;;;;;;;;;;16.62;22.47;99648.75;5064297;28;20018;-80
2022/12/18 01:29:38;;;;;;;;;;;;;;;17.11;22.93;99653.91;5068568;28;19943;-81
2022/12/18 01:32:04;;;;;;;;;;;;;;;16.33;23.13;99649.72;5073228;28;19962;-81
2022/12/18 01:34:30;;;;;;;;;;;;;;;16.71;22.64;99660.53;5071361;28;19975;-80
2022/12/18 01:36:56;;;;;;;;;;;;;;;16.91;22.70;99652.09;5064926;28;19930;-81
2022/12/18 01:39:22;;;;;;;;;;;;;;;17.16;22.22;99650.09;5072305;28;19952;-81
2022/12/18 01:42:03;;;;;;;;;;;;;;;17.65;21.60;99656.34;5073836;28;20355;-81
2022/12/18 01:44:48;;;;;;;;;;;;;;;16.99;22.17;99656.69;5067404;28;19917;-80
2022/12/18 01:47:18;;;;;;;;;;;;;;;16.39;23.26;99664.97;5071719;28;19919;-80
2022/12/18 01:49:44;;;;;;;;;;;;;;;16.46;22.89;99671.56;5105640;27;20005;-80
2022/12/18 01:52:10;;;;;;;;;;;;;;;16.27;23.28;99668.53;5071335;28;19920;-80
2022/12/18 01:54:36;;;;;;;;;;;;;;;15.99;23.42;99661.97;5073835;28;19909;-81
2022/12/18 01:57:02;;;;;;;;;;;;;;;16.21;23.36;99664.38;5071966;28;19913;-80
2022/12/18 01:59:30;;;;;;;;;;;;;;;16.27;23.28;99664.94;5071946;28;20368;-80
2022/12/18 02:01:56;;;;;;;;;;;;;;;15.64;23.79;99663.44;5071677;28;19963;-81
2022/12/18 02:04:26;;;;;;;;;;;;;;;15.91;23.53;99668.44;5069604;28;19916;-80
2022/12/18 02:06:58;;;;;;;;;;;;;;;16.20;23.14;99673.00;5067944;28;19978;-80
2022/12/18 02:09:29;;;;;;;;;;;;;;;15.87;23.28;99676.59;5063358;28;19916;-80
2022/12/18 02:11:57;;;;;;;;;;;;;;;16.49;23.25;99681.16;5072221;28;19913;-80
2022/12/18 02:14:59;;;;;;;;;;;;;;;16.75;22.91;99683.63;5067488;28;19963;-80
2022/12/18 02:17:36;;;;;;;;;;;;;;;16.21;22.97;99703.16;5028746;28;20037;-80
2022/12/18 02:20:21;;;;;;;;;;;;;;;15.93;23.73;99695.78;5067966;28;19912;-80
2022/12/18 02:23:07;;;;;;;;;;;;;;;15.97;23.03;99700.28;5067581;28;20390;-80
2022/12/18 02:25:33;;;;;;;;;;;;;;;16.01;23.19;99706.75;5067210;28;19916;-80
2022/12/18 02:28:01;;;;;;;;;;;;;;;16.35;22.89;99708.38;5070309;28;19916;-80
2022/12/18 02:30:29;;;;;;;;;;;;;;;16.24;23.16;99713.53;5066357;28;20019;-82
2022/12/18 02:32:56;;;;;;;;;;;;;;;15.89;23.32;99707.53;5069845;28;19920;-81
2022/12/18 02:35:27;;;;;;;;;;;;;;;15.57;23.51;99713.00;5065126;28;19924;-80
2022/12/18 02:37:54;;;;;;;;;;;;;;;16.74;23.43;99709.75;5068437;28;19969;-80
2022/12/18 02:40:21;;;;;;;;;;;;;;;17.16;21.98;99722.22;5067653;28;19916;-80
2022/12/18 02:42:47;;;;;;;;;;;;;;;17.39;22.01;99714.22;5065563;28;19927;-80
2022/12/18 02:45:13;;;;;;;;;;;;;;;17.13;22.48;99723.75;5064380;28;19917;-80
2022/12/18 02:47:41;;;;;;;;;;;;;;;17.55;22.28;99727.06;5067509;28;19916;-80
2022/12/18 02:50:14;;;;;;;;;;;;;;;17.47;22.21;99725.22;5071505;28;20368;-80
2022/12/18 02:53:03;;;;;;;;;;;;;;;17.54;21.70;99735.75;5070844;28;19918;-80
2022/12/18 02:55:32;;;;;;;;;;;;;;;17.76;22.15;99746.38;5061735;28;20264;-80
2022/12/18 02:58:03;;;;;;;;;;;;;;;18.20;21.32;99747.25;5063448;28;19965;-80
2022/12/18 03:00:48;;;;;;;;;;;;;;;17.54;21.71;99736.56;5063204;28;20395;-80
2022/12/18 03:03:18;;;;;;;;;;;;;;;17.42;21.78;99741.28;5065927;28;19916;-80
2022/12/18 03:05:52;;;;;;;;;;;;;;;17.23;21.92;99745.47;5068276;28;20015;-80
2022/12/18 03:08:21;;;;;;;;;;;;;;;17.44;21.87;99748.13;5065240;28;19916;-80
2022/12/18 03:10:55;;;;;;;;;;;;;;;17.06;21.87;99748.47;5064033;28;19924;-80
2022/12/18 03:13:36;;;;;;;;;;;;;;;16.86;22.37;99745.81;5074639;28;20007;-80
2022/12/18 03:16:05;;;;;;;;;;;;;;;17.33;22.33;99748.94;5069568;28;20300;-80
2022/12/18 03:18:49;;;;;;;;;;;;;;;17.73;21.97;99761.75;5068810;28;19916;-80
2022/12/18 03:21:18;;;;;;;;;;;;;;;17.64;21.43;99761.06;5072366;28;19917;-80
2022/12/18 03:23:47;;;;;;;;;;;;;;;17.62;21.75;99765.38;5070448;28;19920;-80
2022/12/18 03:26:15;;;;;;;;;;;;;;;17.18;21.69;99764.31;5071051;28;19958;-80
2022/12/18 03:28:47;;;;;;;;;;;;;;;17.74;21.65;99766.16;5073355;28;19923;-80
2022/12/18 03:31:14;;;;;;;;;;;;;;;17.48;21.69;99768.47;5071096;28;19959;-80
2022/12/18 03:33:40;;;;;;;;;;;;;;;17.27;21.77;99767.78;5075780;28;19916;-80
2022/12/18 03:36:06;;;;;;;;;;;;;;;17.59;21.69;99772.44;5073198;28;20326;-80
2022/12/18 03:38:32;;;;;;;;;;;;;;;17.96;22.15;99778.72;5101116;28;19920;-80
2022/12/18 03:41:04;;;;;;;;;;;;;;;17.60;21.48;99778.78;5069688;28;19922;-80
2022/12/18 03:44:03;;;;;;;;;;;;;;;17.58;21.70;99781.91;5071530;28;20014;-80
2022/12/18 03:46:41;;;;;;;;;;;;;;;17.50;21.49;99782.03;5054629;28;20858;-80
2022/12/18 03:49:17;;;;;;;;;;;;;;;17.66;21.98;99786.53;5069922;28;19982;-80
2022/12/18 03:51:47;;;;;;;;;;;;;;;17.45;22.14;99790.59;5073935;28;19916;-80
2022/12/18 03:54:14;;;;;;;;;;;;;;;17.44;21.40;99792.53;5069956;28;19919;-80
2022/12/18 03:56:44;;;;;;;;;;;;;;;17.66;21.20;99794.06;5071406;28;19956;-80
2022/12/18 03:59:12;;;;;;;;;;;;;;;17.53;21.20;99798.81;5068057;28;19924;-80
2022/12/18 04:01:41;;;;;;;;;;;;;;;17.72;21.31;99806.53;5071167;28;19920;-80
2022/12/18 04:04:08;;;;;;;;;;;;;;;16.85;21.67;99805.25;5069838;28;19924;-80
2022/12/18 04:06:35;;;;;;;;;;;;;;;17.44;21.85;99806.44;5074593;28;20007;-80
2022/12/18 04:09:01;;;;;;;;;;;;;;;17.84;21.53;99804.56;5069317;28;19917;-80
2022/12/18 04:11:27;;;;;;;;;;;;;;;17.74;21.33;99805.03;5069471;28;19921;-79
2022/12/18 04:13:57;;;;;;;;;;;;;;;18.23;21.47;99811.28;5070300;28;19962;-80
2022/12/18 04:16:23;;;;;;;;;;;;;;;18.13;20.85;99817.34;5074395;28;19969;-80
2022/12/18 04:18:49;;;;;;;;;;;;;;;17.98;20.80;99818.06;5072850;28;19924;-80
2022/12/18 04:21:15;;;;;;;;;;;;;;;18.54;21.32;99819.75;5063780;28;19916;-80
2022/12/18 04:23:41;;;;;;;;;;;;;;;18.24;20.72;99823.22;5066608;28;19917;-80
2022/12/18 04:26:07;;;;;;;;;;;;;;;17.91;21.25;99832.56;5071063;28;19928;-80
2022/12/18 04:28:33;;;;;;;;;;;;;;;17.35;21.35;99827.94;5071394;28;19985;-80
2022/12/18 04:30:59;;;;;;;;;;;;;;;17.34;21.58;99831.88;5072371;28;20307;-80
2022/12/18 04:33:25;;;;;;;;;;;;;;;17.14;21.72;99833.59;5071209;28;19923;-80
2022/12/18 04:35:51;;;;;;;;;;;;;;;17.85;21.79;99833.94;5072495;28;19916;-80
2022/12/18 04:38:17;;;;;;;;;;;;;;;18.13;21.13;99834.03;5067610;28;22444;-80
2022/12/18 04:40:43;;;;;;;;;;;;;;;18.13;21.22;99842.38;5072730;28;19920;-80
2022/12/18 04:43:09;;;;;;;;;;;;;;;18.45;20.85;99848.84;5071323;28;19923;-80
2022/12/18 04:45:35;;;;;;;;;;;;;;;18.39;21.17;99848.28;5067471;28;19917;-80
2022/12/18 04:48:02;;;;;;;;;;;;;;;18.51;20.43;99847.47;5070616;28;20356;-80
2022/12/18 04:50:29;;;;;;;;;;;;;;;18.70;20.83;99852.38;5069505;28;20372;-80
2022/12/18 04:52:56;;;;;;;;;;;;;;;18.59;20.96;99847.34;5066521;28;19961;-80
2022/12/18 04:55:25;;;;;;;;;;;;;;;18.49;20.36;99850.59;5070185;28;19924;-80
2022/12/18 04:57:51;;;;;;;;;;;;;;;18.49;20.59;99860.91;5069591;28;19924;-80
2022/12/18 05:00:17;;;;;;;;;;;;;;;18.40;20.11;99866.59;5070130;28;19920;-80
2022/12/18 05:02:43;;;;;;;;;;;;;;;17.94;20.57;99869.97;5069679;28;19924;-80
2022/12/18 05:05:10;;;;;;;;;;;;;;;17.82;21.00;99867.19;5067177;28;19931;-80
2022/12/18 05:07:36;;;;;;;;;;;;;;;17.79;20.93;99859.53;5067412;28;20047;-80
2022/12/18 05:10:02;;;;;;;;;;;;;;;18.17;21.23;99859.97;5071533;28;20418;-80
2022/12/18 05:12:28;;;;;;;;;;;;;;;18.54;20.90;99867.06;5070700;28;19923;-80
2022/12/18 05:14:54;;;;;;;;;;;;;;;18.68;20.74;99863.03;5067030;28;19917;-80
2022/12/18 05:17:20;;;;;;;;;;;;;;;19.12;21.21;99859.91;5065902;28;20395;-79
2022/12/18 05:19:46;;;;;;;;;;;;;;;19.28;19.60;99866.28;5073504;28;20057;-80
2022/12/18 05:22:12;;;;;;;;;;;;;;;19.38;19.64;99866.94;5064935;28;20009;-80
2022/12/18 05:24:38;;;;;;;;;;;;;;;19.07;19.80;99865.72;5072057;28;20307;-79
2022/12/18 05:27:04;;;;;;;;;;;;;;;19.15;19.96;99866.75;5074482;28;19948;-79
2022/12/18 05:29:30;;;;;;;;;;;;;;;19.33;20.48;99865.22;5070044;28;19916;-79
2022/12/18 05:31:56;;;;;;;;;;;;;;;19.54;19.76;99868.56;5069018;28;19920;-79
2022/12/18 05:34:22;;;;;;;;;;;;;;;19.02;19.67;99879.13;5070485;28;20450;-79
2022/12/18 05:36:48;;;;;;;;;;;;;;;18.89;20.18;99880.34;5071161;28;20007;-79
2022/12/18 05:39:14;;;;;;;;;;;;;;;18.90;20.54;99888.34;5070075;28;20280;-79
2022/12/18 05:41:40;;;;;;;;;;;;;;;18.75;19.78;99891.06;5069995;28;20346;-79
2022/12/18 05:44:06;;;;;;;;;;;;;;;18.81;20.02;99896.03;5071245;28;19966;-78
2022/12/18 05:46:32;;;;;;;;;;;;;;;18.80;20.12;99893.59;5064658;28;19918;-78
2022/12/18 05:48:59;;;;;;;;;;;;;;;18.69;20.46;99898.06;5061808;28;19916;-79
2022/12/18 05:51:25;;;;;;;;;;;;;;;18.57;20.22;99894.16;5068375;28;19962;-79
2022/12/18 05:53:51;;;;;;;;;;;;;;;18.46;20.19;99898.59;5064078;28;22224;-78
2022/12/18 05:56:19;;;;;;;;;;;;;;;18.35;20.64;99904.97;5064887;28;19944;-79
2022/12/18 05:58:45;;;;;;;;;;;;;;;18.39;20.42;99906.69;5066352;28;19952;-79
2022/12/18 06:01:13;;;;;;;;;;;;;;;18.11;20.28;99914.16;5066615;28;20020;-79
2022/12/18 06:03:39;;;;;;;;;;;;;;;17.11;21.03;99908.41;5068226;28;19948;-78
2022/12/18 06:06:12;;;;;;;;;;;;;;;16.85;21.57;99911.44;5069275;28;19947;-79
2022/12/18 06:08:39;;;;;;;;;;;;;;;17.19;21.85;99911.09;5067986;28;19942;-79
2022/12/18 06:11:05;;;;;;;;;;;;;;;17.95;21.48;99916.84;5067761;28;19969;-79
2022/12/18 06:13:31;;;;;;;;;;;;;;;18.16;20.54;99918.66;5065309;28;19916;-79
2022/12/18 06:15:57;;;;;;;;;;;;;;;18.05;20.41;99921.13;5066960;28;20295;-79
2022/12/18 06:18:22;;;;;;;;;;;;;;;17.75;20.58;99928.09;5070457;28;19913;-79
2022/12/18 06:20:58;;;;;;;;;;;;;;;17.78;21.16;99932.94;5068299;28;19916;-80
2022/12/18 06:23:24;;;;;;;;;;;;;;;17.67;20.82;99935.38;5066360;28;19913;-80
2022/12/18 06:25:51;;;;;;;;;;;;;;;17.47;20.94;99933.47;5062561;28;19964;-80
2022/12/18 06:28:17;;;;;;;;;;;;;;;17.21;21.32;99932.94;5072660;28;19920;-80
2022/12/18 06:30:43;;;;;;;;;;;;;;;17.23;21.06;99937.00;5071490;28;20395;-80
2022/12/18 06:33:09;;;;;;;;;;;;;;;17.27;21.22;99935.16;5070656;28;20322;-80
2022/12/18 06:35:35;;;;;;;;;;;;;;;17.61;20.88;99944.28;5068104;28;19981;-80
2022/12/18 06:38:01;;;;;;;;;;;;;;;18.14;20.55;99946.81;5070197;28;19946;-80
2022/12/18 06:40:27;;;;;;;;;;;;;;;17.95;20.69;99941.84;5069399;28;19939;-79
2022/12/18 06:42:53;;;;;;;;;;;;;;;18.25;20.74;99944.41;5070265;28;19916;-80
2022/12/18 06:45:19;;;;;;;;;;;;;;;18.14;20.63;99949.59;5069168;28;20011;-79
2022/12/18 06:47:45;;;;;;;;;;;;;;;18.15;20.22;99954.00;5067886;28;20004;-79
2022/12/18 06:50:12;;;;;;;;;;;;;;;18.26;20.46;99954.34;5093253;28;20007;-79
2022/12/18 06:52:40;;;;;;;;;;;;;;;18.59;20.95;99958.59;5065195;28;19931;-79
2022/12/18 06:55:09;;;;;;;;;;;;;;;18.48;19.63;99965.00;5070023;28;19958;-78
2022/12/18 06:57:35;;;;;;;;;;;;;;;18.75;20.16;99971.75;5068881;28;19916;-78
2022/12/18 07:00:01;;;;;;;;;;;;;;;18.57;19.89;99972.06;5072932;28;19916;-79
2022/12/18 07:02:27;;;;;;;;;;;;;;;18.36;20.02;99971.38;5067886;28;20017;-79
2022/12/18 07:04:53;;;;;;;;;;;;;;;18.43;20.21;99977.16;5070226;28;19928;-79
2022/12/18 07:07:19;;;;;;;;;;;;;;;18.78;19.95;99974.66;5067854;28;19917;-80
2022/12/18 07:09:45;;;;;;;;;;;;;;;18.71;19.81;99985.59;5067789;28;19920;-80
2022/12/18 07:12:11;;;;;;;;;;;;;;;18.48;20.15;99978.91;5071754;28;19922;-80
2022/12/18 07:14:37;;;;;;;;;;;;;;;18.77;20.08;99991.69;5070705;28;20315;-79
2022/12/18 07:17:03;;;;;;;;;;;;;;;18.09;20.12;99994.31;5072334;28;19916;-79
2022/12/18 07:19:29;;;;;;;;;;;;;;;18.15;20.08;99994.91;5068055;28;19916;-79
2022/12/18 07:21:55;;;;;;;;;;;;;;;18.39;20.10;100000.44;5070369;28;20007;-79
2022/12/18 07:24:21;;;;;;;;;;;;;;;18.56;20.69;100003.81;5072444;28;20024;-79
2022/12/18 07:26:47;;;;;;;;;;;;;;;18.71;19.99;100007.84;5067892;28;19921;-81
2022/12/18 07:29:13;;;;;;;;;;;;;;;18.69;20.56;100007.38;5069321;28;20033;-81
2022/12/18 07:31:39;;;;;;;;;;;;;;;18.36;20.40;100009.47;5071058;28;20400;-81
2022/12/18 07:34:05;;;;;;;;;;;;;;;18.50;20.32;100005.22;5066894;28;19944;-80
2022/12/18 07:36:31;;;;;;;;;;;;;;;18.42;19.60;100019.19;5063991;28;19916;-81
2022/12/18 07:38:57;;;;;;;;;;;;;;;18.75;20.09;100019.88;5072677;28;19920;-81
2022/12/18 07:41:23;;;;;;;;;;;;;;;18.89;19.80;100023.09;5070132;28;19916;-81
2022/12/18 07:43:49;;;;;;;;;;;;;;;19.39;19.74;100025.38;5071917;28;19923;-81
2022/12/18 07:46:15;;;;;;;;;;;;;;;19.70;19.61;100035.75;5069863;28;20323;-82
2022/12/18 07:48:42;;;;;;;;;;;;;;;19.76;19.35;100040.72;5068468;28;19961;-82
2022/12/18 07:51:08;;;;;;;;;;;;;;;20.03;19.56;100039.03;5070218;28;19927;-82
2022/12/18 07:53:35;;;;;;;;;;;;;;;20.43;19.40;100038.84;5069821;28;19977;-81
2022/12/18 07:56:03;;;;;;;;;;;;;;;20.81;19.22;100038.13;5073472;28;19916;-82
2022/12/18 07:58:29;;;;;;;;;;;;;;;21.03;19.26;100031.84;5069128;28;20714;-80
2022/12/18 08:01:21;;;;;;;;;;;;;;;21.30;19.06;100037.25;5074384;28;20300;-81
2022/12/18 08:03:47;;;;;;;;;;;;;;;21.15;18.71;100038.13;5069251;28;20016;-81
2022/12/18 08:06:13;;;;;;;;;;;;;;;20.65;18.86;100038.19;5067900;28;20376;-82
2022/12/18 08:08:41;;;;;;;;;;;;;;;20.75;19.62;100045.97;5064754;28;19924;-82
2022/12/18 08:11:07;;;;;;;;;;;;;;;21.01;19.31;100039.78;5073405;28;20353;-82
2022/12/18 08:13:33;;;;;;;;;;;;;;;21.19;19.58;100043.81;5097235;28;19928;-81
2022/12/18 08:16:06;;;;;;;;;;;;;;;21.39;19.41;100039.81;5069425;28;19966;-82
2022/12/18 08:18:33;;;;;;;;;;;;;;;21.60;19.27;100039.44;5063192;28;19916;-82
2022/12/18 08:21:07;;;;;;;;;;;;;;;21.73;19.03;100050.06;5064858;28;19917;-82
2022/12/18 08:23:33;;;;;;;;;;;;;;;21.75;18.90;100047.69;5066974;28;19928;-82
2022/12/18 08:25:59;;;;;;;;;;;;;;;21.68;19.17;100049.59;5063635;28;20364;-81
2022/12/18 08:28:25;;;;;;;;;;;;;;;21.59;18.42;100043.38;5069403;28;20065;-82
2022/12/18 08:30:51;;;;;;;;;;;;;;;21.73;19.39;100052.03;5064212;28;20915;-82
2022/12/18 08:33:17;;;;;;;;;;;;;;;21.58;19.04;100058.56;5062663;28;19920;-81
2022/12/18 08:35:43;;;;;;;;;;;;;;;21.16;18.94;100055.72;5064770;28;20299;-83
2022/12/18 08:38:09;;;;;;;;;;;;;;;20.53;19.29;100058.66;5066800;28;19916;-81
2022/12/18 08:40:35;;;;;;;;;;;;;;;20.10;19.68;100069.88;5096794;28;19985;-80
2022/12/18 08:45:46;;;;;;;;;;;;;;;20.92;20.10;100061.53;5064781;28;20007;-82
2022/12/18 08:48:12;;;;;;;;;;;;;;;21.42;19.57;100060.63;5068729;28;19956;-79
2022/12/18 08:50:38;;;;;;;;;;;;;;;21.64;18.90;100068.25;5065780;28;19924;-80
2022/12/18 08:53:04;;;;;;;;;;;;;;;21.71;19.50;100065.59;5067628;28;20026;-80
2022/12/18 08:55:30;;;;;;;;;;;;;;;21.56;18.59;100072.91;5065228;28;19917;-79
2022/12/18 08:57:56;;;;;;;;;;;;;;;21.14;19.87;100070.03;5069241;28;20485;-82
2022/12/18 09:00:22;;;;;;;;;;;;;;;20.84;19.36;100076.50;5063589;28;20062;-81
2022/12/18 09:02:48;;;;;;;;;;;;;;;20.90;20.66;100077.84;5066154;28;19920;-82
2022/12/18 09:05:14;;;;;;;;;;;;;;;21.40;20.21;100085.34;5065004;28;19916;-81
2022/12/18 09:07:40;;;;;;;;;;;;;;;21.70;19.56;100083.56;5072860;28;19920;-82
2022/12/18 09:10:06;;;;;;;;;;;;;;;22.04;19.04;100082.63;5070418;28;19925;-81
2022/12/18 09:12:32;;;;;;;;;;;;;;;22.17;19.47;100081.25;5071737;28;19925;-82
2022/12/18 09:14:58;;;;;;;;;;;;;;;22.37;19.22;100090.41;5065529;28;19920;-82
2022/12/18 09:17:24;;;;;;;;;;;;;;;22.26;18.94;100093.03;5063418;28;20299;-82
2022/12/18 09:19:50;;;;;;;;;;;;;;;22.20;18.98;100086.13;5070306;28;19919;-81
2022/12/18 09:22:16;;;;;;;;;;;;;;;22.05;18.71;100091.84;5067276;28;19923;-82
2022/12/18 09:24:42;;;;;;;;;;;;;;;21.65;20.62;100097.84;5067289;28;20386;-82
2022/12/18 09:27:08;;;;;;;;;;;;;;;21.86;20.43;100087.91;5073093;28;19916;-82
2022/12/18 09:29:34;;;;;;;;;;;;;;;22.24;20.00;100098.16;5072443;28;19927;-81
2022/12/18 09:32:00;;;;;;;;;;;;;;;22.33;19.88;100101.56;5061989;28;19920;-84
2022/12/18 09:34:26;;;;;;;;;;;;;;;22.39;19.54;100102.84;5069111;28;19917;-82
2022/12/18 09:36:52;;;;;;;;;;;;;;;22.39;19.36;100102.84;5064082;28;19917;-80
2022/12/18 09:39:18;;;;;;;;;;;;;;;22.49;19.33;100107.00;5069773;28;19916;-81
2022/12/18 09:41:47;;;;;;;;;;;;;;;22.46;19.59;100100.16;5070954;28;19935;-81
2022/12/18 09:56:46;;;;;;;;;;;;;;;23.04;19.21;100102.69;5104203;23;20546;-93
2022/12/18 10:30:14;;;;;;;;;;;;;;;;;;;;;
2022/12/18 10:32:44;;;;;;;;;;;;;;;22.06;20.34;100097.06;4908149;29;19919;-93
2022/12/18 10:35:33;;;;;;;;;;;;;;;22.15;19.87;100089.22;4966100;28;19976;-89
2022/12/18 10:38:17;;;;;;;;;;;;;;;22.18;20.52;100093.25;4979893;28;19924;-88
2022/12/18 10:40:59;;;;;;;;;;;;;;;22.18;20.34;100082.88;4962919;28;20290;-88
2022/12/18 10:43:25;;;;;;;;;;;;;;;22.15;20.51;100085.63;4979282;28;19937;-88
2022/12/18 10:45:57;;;;;;;;;;;;;;;22.10;20.21;100099.94;4978785;28;20009;-88
2022/12/18 10:48:23;;;;;;;;;;;;;;;22.09;20.20;100084.31;4978849;28;20401;-87
2022/12/18 10:50:51;;;;;;;;;;;;;;;22.12;20.29;100083.56;4977392;28;19921;-88
2022/12/18 10:53:25;;;;;;;;;;;;;;;22.10;20.23;100080.34;4973752;28;19933;-88
2022/12/18 10:55:53;;;;;;;;;;;;;;;22.10;20.18;100075.53;4980035;28;19926;-88
2022/12/18 10:58:26;;;;;;;;;;;;;;;22.13;20.15;100069.22;4983590;28;19945;-88
2022/12/18 11:01:04;;;;;;;;;;;;;;;22.12;18.94;100064.81;4977822;28;19992;-88
2022/12/18 11:03:41;;;;;;;;;;;;;;;22.11;20.47;100073.56;4977059;28;19918;-88
2022/12/18 11:06:18;;;;;;;;;;;;;;;21.80;18.69;100071.75;4978238;28;20354;-88
2022/12/18 11:08:56;;;;;;;;;;;;;;;21.30;20.17;100070.78;4982151;28;19930;-86
2022/12/18 11:11:23;;;;;;;;;;;;;;;20.62;20.07;100064.03;4963852;28;20021;-88
2022/12/18 11:13:52;;;;;;;;;;;;;;;20.47;20.66;100065.66;4988736;28;20293;-87
2022/12/18 11:16:19;;;;;;;;;;;;;;;20.45;20.72;100058.81;4980862;28;19918;-87
2022/12/18 11:18:46;;;;;;;;;;;;;;;20.63;21.23;100055.28;4981525;28;19964;-87
2022/12/18 11:21:13;;;;;;;;;;;;;;;21.05;21.46;100055.47;4979968;28;20441;-87
2022/12/18 11:23:48;;;;;;;;;;;;;;;21.48;20.75;100053.56;4969440;28;19961;-87
2022/12/18 11:26:14;;;;;;;;;;;;;;;21.72;19.85;100047.66;4976836;28;19928;-86
2022/12/18 11:28:43;;;;;;;;;;;;;;;21.97;19.98;100037.75;4974447;28;19968;-85
2022/12/18 11:31:17;;;;;;;;;;;;;;;22.12;19.82;100039.63;4974475;28;20455;-85
2022/12/18 11:33:52;;;;;;;;;;;;;;;22.13;19.61;100043.22;4973373;28;20394;-84
2022/12/18 11:36:20;;;;;;;;;;;;;;;22.00;19.06;100051.81;4980174;28;20298;-83
2022/12/18 11:38:46;;;;;;;;;;;;;;;22.06;19.87;100051.47;4980395;28;19918;-84
2022/12/18 11:44:19;;;;;;;;;;;;;;;21.84;20.30;100053.09;4979790;28;19984;-84
2022/12/18 11:46:55;;;;;;;;;;;;;;;21.57;19.92;100043.78;4982897;28;19996;-84
2022/12/18 11:49:29;;;;;;;;;;;;;;;21.17;19.42;100046.13;4982156;28;20017;-84
2022/12/18 11:52:03;;;;;;;;;;;;;;;20.86;20.97;100051.81;4987919;28;19972;-83
2022/12/18 11:54:29;;;;;;;;;;;;;;;20.85;20.71;100048.22;4981152;28;19948;-85
2022/12/18 11:56:58;;;;;;;;;;;;;;;21.26;19.89;100055.13;4982327;28;19921;-84
2022/12/18 11:59:40;;;;;;;;;;;;;;;21.60;20.16;100059.00;4979809;28;19951;-84
2022/12/18 12:02:29;;;;;;;;;;;;;;;21.89;19.52;100056.38;4982467;28;19918;-84
2022/12/18 12:05:30;;;;;;;;;;;;;;;22.06;19.83;100057.88;4983590;28;20440;-84
2022/12/18 12:08:06;;;;;;;;;;;;;;;21.46;20.17;100058.72;4919421;29;19960;-85
2022/12/18 12:11:03;;;;;;;;;;;;;;;21.19;19.72;100057.78;4972874;28;20440;-83
2022/12/18 12:13:47;;;;;;;;;;;;;;;21.22;19.89;100060.63;4979035;28;19925;-84
2022/12/18 12:16:25;;;;;;;;;;;;;;;21.68;19.49;100063.56;4981467;28;20012;-84
2022/12/18 12:18:54;;;;;;;;;;;;;;;22.03;19.66;100061.47;4982090;28;20024;-84
2022/12/18 12:21:23;;;;;;;;;;;;;;;22.19;18.41;100055.72;4986973;28;20321;-84
2022/12/18 12:23:57;;;;;;;;;;;;;;;21.93;19.49;100051.69;4981569;28;19925;-82
2022/12/18 12:26:29;;;;;;;;;;;;;;;22.13;19.43;100052.41;4993109;28;19922;-84
2022/12/18 12:29:00;;;;;;;;;;;;;;;22.35;18.99;100056.41;4987115;28;19918;-83
2022/12/18 12:31:33;;;;;;;;;;;;;;;22.45;18.47;100064.94;4989393;28;20000;-83
2022/12/18 12:34:22;;;;;;;;;;;;;;;22.00;18.54;100067.78;4984193;28;19922;-84
2022/12/18 12:36:51;;;;;;;;;;;;;;;22.01;19.86;100074.97;4985972;28;20388;-86
2022/12/18 12:39:20;;;;;;;;;;;;;;;22.05;19.42;100081.47;4981011;28;19925;-84
2022/12/18 12:44:50;;;;;;;;;;;;;;;20.13;19.63;100097.06;4981883;28;20376;-84
2022/12/18 12:47:21;;;;;;;;;;;;;;;17.78;22.38;100103.22;4979239;28;19992;-85
2022/12/18 12:49:48;;;;;;;;;;;;;;;18.52;22.04;100105.81;4984060;28;19924;-87
2022/12/18 12:52:22;;;;;;;;;;;;;;;19.13;21.51;100100.16;4965915;28;20008;-86
2022/12/18 12:54:49;;;;;;;;;;;;;;;18.86;21.44;100107.28;4983364;28;19929;-83
2022/12/18 12:57:33;;;;;;;;;;;;;;;19.05;20.85;100112.22;4983362;28;20358;-86
2022/12/18 13:00:08;;;;;;;;;;;;;;;17.25;22.84;100115.13;4970502;28;19918;-85
2022/12/18 13:02:39;;;;;;;;;;;;;;;14.73;25.95;100114.03;4985773;28;19930;-85
2022/12/18 13:05:19;;;;;;;;;;;;;;;16.01;24.79;100119.53;4992091;28;19926;-85
2022/12/18 13:07:53;;;;;;;;;;;;;;;16.07;24.92;100125.72;4987798;28;19917;-85
2022/12/18 13:10:20;;;;;;;;;;;;;;;15.42;25.07;100129.56;4986087;28;19918;-84
2022/12/18 13:12:57;;;;;;;;;;;;;;;12.95;29.12;100138.28;4984802;28;19917;-84
2022/12/18 13:15:26;;;;;;;;;;;;;;;12.02;29.92;100152.56;4981543;28;19918;-85
2022/12/18 13:18:10;;;;;;;;;;;;;;;14.22;26.95;100132.03;4985149;28;19925;-86
2022/12/18 13:20:40;;;;;;;;;;;;;;;15.73;24.89;100135.72;4981650;28;19925;-84
2022/12/18 13:23:24;;;;;;;;;;;;;;;16.20;23.97;100133.00;4962193;28;20317;-84
2022/12/18 13:25:54;;;;;;;;;;;;;;;16.87;22.87;100124.72;4982209;28;19925;-84
2022/12/18 13:28:20;;;;;;;;;;;;;;;18.17;21.88;100115.72;4983036;28;20325;-84
2022/12/18 13:30:46;;;;;;;;;;;;;;;19.13;22.40;100114.91;4985974;28;19930;-84
2022/12/18 13:33:19;;;;;;;;;;;;;;;19.85;21.51;100119.41;4985590;28;19945;-86
2022/12/18 13:35:45;;;;;;;;;;;;;;;20.26;20.37;100123.72;4979005;28;19973;-84
2022/12/18 13:38:30;;;;;;;;;;;;;;;20.64;19.69;100118.31;4975939;28;19918;-83
2022/12/18 13:41:14;;;;;;;;;;;;;;;20.47;19.10;100120.66;4976154;28;19918;-85
2022/12/18 13:43:43;;;;;;;;;;;;;;;20.37;19.41;100135.16;4978649;28;19933;-83
2022/12/18 13:46:27;;;;;;;;;;;;;;;20.38;19.30;100139.56;4987074;28;20392;-84